Time;durP1;ratioP1;P1;durP2;ratioP2;P2;SDS_P1;SDS_P2;PMS_P1;PMS_P2;Temp;Humidity;BMP_temperature;BMP_pressure;BME280_temperature;BME280_humidity;BME280_pressure;Samples;Min_cycle;Max_cycle;Signal;HPM_P1;HPM_P2
2022/02/11 00:02:08;;;;;;;13.05;5.65;;;;;;;4.84;100.00;95505.59;4992530;28;20457;-65
2022/02/11 00:07:21;;;;;;;10.02;5.63;;;;;;;4.95;100.00;95501.41;4993073;28;20397;-65
2022/02/11 00:09:46;;;;;;;16.25;6.10;;;;;;;4.99;100.00;95497.28;4992926;28;20092;-65
2022/02/11 00:12:11;;;;;;;11.15;6.07;;;;;;;5.00;100.00;95493.63;4992753;28;20105;-65
2022/02/11 00:14:48;;;;;;;15.98;6.47;;;;;;;5.03;100.00;95487.06;4992956;28;20026;-65
2022/02/11 00:17:15;;;;;;;13.32;6.10;;;;;;;5.07;100.00;95478.41;4992428;28;20362;-65
2022/02/11 00:19:40;;;;;;;12.25;6.15;;;;;;;5.08;100.00;95468.59;4975342;28;20033;-65
2022/02/11 00:22:15;;;;;;;10.82;6.28;;;;;;;5.09;100.00;95473.69;4992794;28;20035;-65
2022/02/11 00:24:43;;;;;;;11.43;5.85;;;;;;;5.12;100.00;95475.13;4975235;28;20030;-65
2022/02/11 00:35:33;;;;;;;13.40;5.95;;;;;;;5.09;100.00;95484.31;4976933;28;20108;-65
2022/02/11 00:38:03;;;;;;;14.73;6.68;;;;;;;5.08;100.00;95484.53;4992702;28;20054;-65
2022/02/11 00:46:14;;;;;;;11.75;6.50;;;;;;;5.02;100.00;95454.38;4992496;28;20050;-65
2022/02/11 01:02:41;;;;;;;7.93;5.00;;;;;;;4.91;100.00;95407.34;4992573;28;20104;-65
2022/02/11 01:05:19;;;;;;;11.07;5.18;;;;;;;4.90;100.00;95411.84;4974759;28;20062;-65
2022/02/11 01:07:44;;;;;;;8.65;5.00;;;;;;;4.87;100.00;95404.28;4992799;28;20109;-65
2022/02/11 01:10:10;;;;;;;11.70;4.85;;;;;;;4.84;100.00;95403.94;4992311;28;20577;-65
2022/02/11 01:12:40;;;;;;;9.40;5.00;;;;;;;4.82;100.00;95409.47;4992254;28;20026;-65
2022/02/11 01:15:06;;;;;;;11.35;5.22;;;;;;;4.81;100.00;95409.69;4993008;28;20034;-65
2022/02/11 01:17:40;;;;;;;11.93;5.32;;;;;;;4.80;100.00;95411.53;4974915;28;20497;-65
2022/02/11 01:27:56;;;;;;;12.18;6.05;;;;;;;4.74;100.00;95379.75;4992303;28;20031;-65
2022/02/11 01:31:15;;;;;;;8.90;4.72;;;;;;;4.73;100.00;95375.47;4995078;28;20029;-65
2022/02/11 02:24:48;;;;;;;8.57;4.88;;;;;;;4.42;100.00;95252.56;4999493;28;20073;-65
2022/02/11 02:33:41;;;;;;;8.15;4.95;;;;;;;4.43;100.00;95238.28;4972899;28;20498;-65
2022/02/11 02:58:24;;;;;;;9.18;4.90;;;;;;;4.44;100.00;95151.56;4994441;28;20038;-65
2022/02/11 03:01:11;;;;;;;10.18;5.47;;;;;;;4.43;100.00;95147.28;4993932;28;20029;-65
2022/02/11 03:15:23;;;;;;;10.65;5.50;;;;;;;4.57;100.00;95170.78;4994132;28;20034;-65
2022/02/11 03:51:04;;;;;;;6.75;3.80;;;;;;;4.56;100.00;95126.72;4993414;28;20096;-64
2022/02/11 04:56:47;;;;;;;1.55;0.98;;;;;;;-144.43;100.00;64487.81;4980709;28;20038;-64
2022/02/11 05:01:57;;;;;;;1.05;0.75;;;;;;;-144.43;100.00;64487.81;4992749;28;20117;-65
2022/02/11 05:04:22;;;;;;;4.25;1.13;;;;;;;-144.43;100.00;64487.81;4995608;28;20113;-64
2022/02/11 05:06:48;;;;;;;1.13;0.80;;;;;;;-144.43;100.00;64487.81;4995110;28;20030;-64
2022/02/11 05:09:13;;;;;;;0.80;0.60;;;;;;;-144.43;100.00;64487.81;4996091;28;20034;-65
2022/02/11 05:11:42;;;;;;;0.70;0.60;;;;;;;-144.43;100.00;64487.81;4996214;28;20053;-65
2022/02/11 05:14:10;;;;;;;0.95;0.70;;;;;;;-144.43;100.00;64487.81;4994896;28;20133;-65
2022/02/11 05:16:35;;;;;;;1.13;0.70;;;;;;;-144.43;100.00;64487.81;4996053;28;20397;-65
2022/02/11 05:19:01;;;;;;;0.55;0.50;;;;;;;-144.43;100.00;64487.81;4995952;28;20027;-65
2022/02/11 05:21:26;;;;;;;2.28;0.50;;;;;;;-144.43;100.00;64487.81;4996046;28;20026;-65
2022/02/11 05:23:52;;;;;;;0.40;0.40;;;;;;;-144.43;100.00;64487.81;4995854;28;20027;-65
2022/02/11 05:26:21;;;;;;;1.35;0.65;;;;;;;-144.43;100.00;64487.81;4995883;28;20062;-65
2022/02/11 05:28:46;;;;;;;1.02;0.47;;;;;;;-144.43;100.00;64487.81;4994492;28;20026;-65
2022/02/11 05:31:14;;;;;;;2.50;0.40;;;;;;;-144.43;100.00;64487.81;4995710;28;20157;-65
2022/02/11 05:33:43;;;;;;;1.08;0.45;;;;;;;-144.43;100.00;64487.81;4994571;28;20015;-65
2022/02/11 05:36:15;;;;;;;2.33;0.45;;;;;;;-144.43;100.00;64487.81;4995684;28;20032;-65
2022/02/11 05:38:43;;;;;;;1.85;0.50;;;;;;;-144.43;100.00;64487.81;4994401;28;20026;-65
2022/02/11 05:41:12;;;;;;;0.30;0.30;;;;;;;-144.43;100.00;64487.81;4973733;28;20133;-65
2022/02/11 05:43:40;;;;;;;0.50;0.40;;;;;;;-144.43;100.00;64487.81;4956687;28;20031;-65
2022/02/11 05:46:09;;;;;;;0.47;0.30;;;;;;;-144.43;100.00;64487.81;4956640;28;20027;-65
2022/02/11 05:48:36;;;;;;;0.65;0.50;;;;;;;-144.43;100.00;64487.81;4961016;28;20027;-65
2022/02/11 05:51:02;;;;;;;1.98;0.40;;;;;;;-144.43;100.00;64487.81;4956567;28;20023;-65
2022/02/11 05:53:33;;;;;;;0.65;0.32;;;;;;;-144.43;100.00;64487.81;4939565;29;20444;-65
2022/02/11 05:56:06;;;;;;;0.63;0.40;;;;;;;-144.43;100.00;64487.81;4955232;29;20110;-65
2022/02/11 05:58:32;;;;;;;0.98;0.50;;;;;;;-144.43;100.00;64487.81;4956608;28;20490;-65
2022/02/11 06:01:00;;;;;;;1.20;0.50;;;;;;;-144.43;100.00;64487.81;4956407;28;20117;-65
2022/02/11 06:03:28;;;;;;;0.40;0.40;;;;;;;-144.43;100.00;64487.81;4956426;28;20031;-64
2022/02/11 06:05:54;;;;;;;0.30;0.30;;;;;;;-144.43;100.00;64487.81;4956453;28;20027;-65
2022/02/11 06:08:22;;;;;;;0.30;0.30;;;;;;;-144.43;100.00;64487.81;4955165;29;20114;-65
2022/02/11 06:10:48;;;;;;;0.70;0.50;;;;;;;-144.43;100.00;64487.81;4957888;28;20023;-65
2022/02/11 06:13:14;;;;;;;0.40;0.40;;;;;;;-144.43;100.00;64487.81;4968356;28;20074;-65
2022/02/11 06:15:46;;;;;;;0.68;0.30;;;;;;;-144.43;100.00;64487.81;4956618;28;20486;-65
2022/02/11 06:18:11;;;;;;;0.40;0.30;;;;;;;-144.43;100.00;64487.81;4956234;28;20031;-65
2022/02/11 06:20:40;;;;;;;1.13;0.30;;;;;;;-144.43;100.00;64487.81;4956941;28;20103;-65
2022/02/11 06:23:13;;;;;;;0.47;0.45;;;;;;;-144.43;100.00;64487.81;4961662;28;20130;-65
2022/02/11 06:25:38;;;;;;;0.30;0.20;;;;;;;-144.43;100.00;64487.81;4956167;28;20027;-64
2022/02/11 06:28:06;;;;;;;0.40;0.40;;;;;;;-144.43;100.00;64487.81;4956047;28;20103;-64
2022/02/11 06:30:32;;;;;;;0.50;0.40;;;;;;;-144.43;100.00;64487.81;4957754;28;20058;-64
2022/02/11 06:32:57;;;;;;;0.60;0.28;;;;;;;-144.43;100.00;64487.81;4973008;28;20046;-64
2022/02/11 06:35:31;;;;;;;0.50;0.30;;;;;;;-144.43;100.00;64487.81;4974656;28;20493;-64
2022/02/11 06:37:57;;;;;;;0.38;0.32;;;;;;;-144.43;100.00;64487.81;4974497;28;20446;-64
2022/02/11 06:40:23;;;;;;;0.30;0.28;;;;;;;-144.43;100.00;64487.81;5000070;28;20513;-64
2022/02/11 06:42:48;;;;;;;0.35;0.28;;;;;;;-144.43;100.00;64487.81;5005027;28;20022;-64
2022/02/11 06:45:13;;;;;;;0.80;0.30;;;;;;;-144.43;100.00;64487.81;5010037;28;20385;-64
2022/02/11 06:47:39;;;;;;;0.68;0.20;;;;;;;-144.43;100.00;64487.81;5009763;28;20481;-64
2022/02/11 06:50:05;;;;;;;0.43;0.32;;;;;;;-144.43;100.00;64487.81;4976764;28;20031;-64
2022/02/11 06:52:33;;;;;;;0.40;0.40;;;;;;;-144.43;100.00;64487.81;5008250;28;20513;-64
2022/02/11 06:54:59;;;;;;;0.50;0.30;;;;;;;-144.43;100.00;64487.81;5013865;28;20112;-64
2022/02/11 06:57:24;;;;;;;0.20;0.20;;;;;;;-144.43;100.00;64487.81;4994709;28;20552;-63
2022/02/11 06:59:49;;;;;;;0.45;0.38;;;;;;;-144.43;100.00;64487.81;4995332;28;20033;-64
2022/02/11 07:02:18;;;;;;;0.20;0.20;;;;;;;-144.43;100.00;64487.81;4998110;28;20022;-64
2022/02/11 07:04:44;;;;;;;0.30;0.30;;;;;;;-144.43;100.00;64487.81;4993459;28;20101;-64
2022/02/11 07:07:10;;;;;;;0.90;0.40;;;;;;;-144.43;100.00;64487.81;5010482;28;20034;-64
2022/02/11 07:09:35;;;;;;;0.40;0.40;;;;;;;-144.43;100.00;64487.81;4974442;28;20397;-64
2022/02/11 07:12:01;;;;;;;0.43;0.25;;;;;;;-144.43;100.00;64487.81;4990493;28;20057;-64
2022/02/11 07:14:26;;;;;;;0.40;0.30;;;;;;;-144.43;100.00;64487.81;4993908;28;20022;-65
2022/02/11 07:16:52;;;;;;;0.20;0.20;;;;;;;-144.43;100.00;64487.81;5006440;28;20028;-65
2022/02/11 07:19:17;;;;;;;1.20;0.50;;;;;;;-144.43;100.00;64487.81;4992962;28;20044;-65
2022/02/11 07:21:42;;;;;;;0.57;0.35;;;;;;;-144.43;100.00;64487.81;5009591;28;20026;-64
2022/02/11 07:24:08;;;;;;;0.30;0.20;;;;;;;-144.43;100.00;64487.81;4999043;28;20032;-65
2022/02/11 07:26:33;;;;;;;0.63;0.45;;;;;;;-144.43;100.00;64487.81;5012728;28;20028;-65
2022/02/11 07:28:59;;;;;;;0.50;0.40;;;;;;;-144.43;100.00;64487.81;5010897;28;20451;-64
2022/02/11 07:31:24;;;;;;;0.47;0.28;;;;;;;-144.43;100.00;64487.81;5023310;28;20507;-64
2022/02/11 07:33:50;;;;;;;0.30;0.30;;;;;;;-144.43;100.00;64487.81;4993383;28;20022;-64
2022/02/11 07:36:15;;;;;;;0.55;0.30;;;;;;;-144.43;100.00;64487.81;4976003;28;20019;-64
2022/02/11 07:38:41;;;;;;;0.38;0.38;;;;;;;-144.43;100.00;64487.81;4993378;28;20093;-64
2022/02/11 07:41:06;;;;;;;0.77;0.35;;;;;;;-144.43;100.00;64487.81;5035404;23;20057;-65
2022/02/11 07:43:31;;;;;;;0.70;0.50;;;;;;;-144.43;100.00;64487.81;5030306;28;20035;-66
2022/02/11 07:45:57;;;;;;;0.40;0.40;;;;;;;-144.43;100.00;64487.81;5032779;28;20068;-66
2022/02/11 07:48:22;;;;;;;2.25;0.50;;;;;;;-144.43;100.00;64487.81;5032704;28;20032;-66
2022/02/11 07:50:50;;;;;;;0.73;0.50;;;;;;;-144.43;100.00;64487.81;5032599;28;20028;-66
2022/02/11 07:53:16;;;;;;;1.55;0.68;;;;;;;-144.43;100.00;64487.81;5032783;28;20060;-66
2022/02/11 07:55:41;;;;;;;0.88;0.50;;;;;;;-144.43;100.00;64487.81;5032545;28;20018;-66
2022/02/11 07:58:08;;;;;;;1.63;0.50;;;;;;;-144.43;100.00;64487.81;5032669;28;20099;-66
2022/02/11 08:00:33;;;;;;;0.38;0.38;;;;;;;-144.43;100.00;64487.81;5032502;28;20026;-66
2022/02/11 08:02:58;;;;;;;0.50;0.40;;;;;;;-144.43;100.00;64487.81;5032406;28;20037;-66
2022/02/11 08:05:24;;;;;;;2.70;0.50;;;;;;;-144.43;100.00;64487.81;5032274;28;20021;-66
2022/02/11 08:07:49;;;;;;;0.35;0.35;;;;;;;-144.43;100.00;64487.81;5032469;28;20369;-66
2022/02/11 08:10:14;;;;;;;1.42;0.80;;;;;;;-144.43;100.00;64487.81;5032396;28;20072;-66
2022/02/11 08:12:40;;;;;;;0.40;0.40;;;;;;;-144.43;100.00;64487.81;5032375;28;20036;-66
2022/02/11 08:15:06;;;;;;;1.98;0.50;;;;;;;-144.43;100.00;64487.81;5032283;28;20078;-65
2022/02/11 08:17:31;;;;;;;0.50;0.50;;;;;;;-144.43;100.00;64487.81;5030980;28;20480;-66
2022/02/11 08:19:57;;;;;;;1.15;0.50;;;;;;;-144.43;100.00;64487.81;5032217;28;20438;-66
2022/02/11 08:22:22;;;;;;;1.38;0.60;;;;;;;-144.43;100.00;64487.81;5031101;28;20514;-65
2022/02/11 08:24:48;;;;;;;0.75;0.50;;;;;;;-144.43;100.00;64487.81;5032169;28;20100;-66
2022/02/11 08:27:14;;;;;;;0.98;0.57;;;;;;;-144.43;100.00;64487.81;5032374;28;20025;-66
2022/02/11 08:29:43;;;;;;;1.02;0.55;;;;;;;-144.43;100.00;64487.81;5030887;28;20025;-65
2022/02/11 08:32:09;;;;;;;0.60;0.52;;;;;;;-144.43;100.00;64487.81;5030896;28;20121;-66
2022/02/11 08:34:35;;;;;;;0.95;0.65;;;;;;;-144.43;100.00;64487.81;5032305;28;20060;-66
2022/02/11 08:37:00;;;;;;;0.70;0.55;;;;;;;-144.43;100.00;64487.81;5031026;28;20051;-66
2022/02/11 08:39:26;;;;;;;2.47;0.80;;;;;;;-144.43;100.00;64487.81;5034568;28;20032;-65
2022/02/11 08:41:53;;;;;;;1.35;1.00;;;;;;;-144.43;100.00;64487.81;5024045;28;20029;-66
2022/02/11 08:44:20;;;;;;;3.03;0.70;;;;;;;-144.43;100.00;64487.81;5034818;28;20041;-66
2022/02/11 08:46:46;;;;;;;0.50;0.50;;;;;;;-144.43;100.00;64487.81;5034746;28;20036;-66
2022/02/11 08:49:11;;;;;;;1.00;0.80;;;;;;;-144.43;100.00;64487.81;5030587;28;20100;-66
2022/02/11 08:51:37;;;;;;;1.52;1.13;;;;;;;-144.43;100.00;64487.81;5036152;28;20498;-66
2022/02/11 08:54:04;;;;;;;2.42;1.35;;;;;;;-144.43;100.00;64487.81;5034725;28;20028;-66
2022/02/11 08:56:30;;;;;;;2.90;1.70;;;;;;;-144.43;100.00;64487.81;5034775;28;20049;-67
2022/02/11 08:58:56;;;;;;;1.60;1.17;;;;;;;-144.43;100.00;64487.81;5018198;28;20060;-66
2022/02/11 09:01:22;;;;;;;1.50;1.40;;;;;;;-144.43;100.00;64487.81;5035759;28;20028;-66
2022/02/11 09:03:47;;;;;;;1.98;1.40;;;;;;;-144.43;100.00;64487.81;5035760;28;20500;-66
2022/02/11 09:06:12;;;;;;;3.60;1.45;;;;;;;-144.43;100.00;64487.81;5035830;28;20026;-65
2022/02/11 09:08:40;;;;;;;2.83;1.90;;;;;;;-144.43;100.00;64487.81;5035618;28;20032;-65
2022/02/11 09:11:08;;;;;;;1.98;1.45;;;;;;;-144.43;100.00;64487.81;5035527;28;20044;-65
2022/02/11 09:13:34;;;;;;;1.90;1.70;;;;;;;-144.43;100.00;64487.81;5034354;28;20112;-67
2022/02/11 09:15:59;;;;;;;2.88;1.85;;;;;;;-144.43;100.00;64487.81;5035661;28;20160;-66
2022/02/11 09:18:25;;;;;;;2.58;1.80;;;;;;;-144.43;100.00;64487.81;5035669;28;20021;-65
2022/02/11 09:20:50;;;;;;;3.25;1.65;;;;;;;-144.43;100.00;64487.81;5035569;28;20022;-66
2022/02/11 09:23:17;;;;;;;3.15;1.70;;;;;;;-144.43;100.00;64487.81;5034188;28;20365;-65
2022/02/11 09:25:43;;;;;;;4.28;1.73;;;;;;;-144.43;100.00;64487.81;5024189;28;20109;-65
2022/02/11 09:28:09;;;;;;;3.05;1.77;;;;;;;-144.43;100.00;64487.81;5028773;28;20452;-65
2022/02/11 09:30:34;;;;;;;2.10;1.83;;;;;;;-144.43;100.00;64487.81;5035270;28;20033;-65
2022/02/11 09:33:00;;;;;;;5.90;2.10;;;;;;;-144.43;100.00;64487.81;5034094;28;20464;-65
2022/02/11 09:35:30;;;;;;;2.85;1.77;;;;;;;-144.43;100.00;64487.81;5035344;28;20041;-65
2022/02/11 09:37:57;;;;;;;2.47;1.85;;;;;;;-144.43;100.00;64487.81;5035181;28;20057;-65
2022/02/11 09:40:23;;;;;;;5.28;1.80;;;;;;;-144.43;100.00;64487.81;5025146;28;20050;-64
2022/02/11 09:42:54;;;;;;;5.32;2.28;;;;;;;-144.43;100.00;64487.81;5030672;28;20037;-65
2022/02/11 09:45:20;;;;;;;4.97;2.70;;;;;;;-144.43;100.00;64487.81;5035046;28;20029;-65
2022/02/11 09:47:47;;;;;;;3.95;2.50;;;;;;;-144.43;100.00;64487.81;5029832;28;20167;-67
2022/02/11 09:50:12;;;;;;;3.55;2.30;;;;;;;-144.43;100.00;64487.81;5033760;28;20033;-64
2022/02/11 09:52:40;;;;;;;2.65;2.08;;;;;;;-144.43;100.00;64487.81;5034870;28;20484;-64
2022/02/11 09:57:52;;;;;;;7.63;2.42;;;;;;;-144.43;100.00;64487.81;5034928;28;20086;-66
2022/02/11 10:00:25;;;;;;;4.13;2.38;;;;;;;-144.43;100.00;64487.81;5034828;28;20032;-64
2022/02/11 10:02:55;;;;;;;4.47;1.58;;;;;;;-144.43;100.00;64487.81;5034795;28;20025;-64
2022/02/11 10:05:23;;;;;;;3.75;1.67;;;;;;;-144.43;100.00;64487.81;5034529;28;20472;-64
2022/02/11 10:07:49;;;;;;;2.30;1.55;;;;;;;-144.43;100.00;64487.81;5033512;28;20025;-64
2022/02/11 10:10:18;;;;;;;3.10;1.50;;;;;;;-144.43;100.00;64487.81;5034475;28;20026;-64
2022/02/11 10:12:45;;;;;;;6.15;1.52;;;;;;;-144.43;100.00;64487.81;5033454;28;20057;-64
2022/02/11 10:15:21;;;;;;;4.53;1.73;;;;;;;-144.43;100.00;64487.81;5033288;28;20025;-64
2022/02/11 10:17:46;;;;;;;3.45;1.80;;;;;;;-144.43;100.00;64487.81;5034556;28;20162;-64
2022/02/11 10:20:12;;;;;;;2.53;1.75;;;;;;;-144.43;100.00;64487.81;5034314;28;20478;-66
2022/02/11 10:22:37;;;;;;;5.07;1.98;;;;;;;-144.43;100.00;64487.81;5034396;28;20028;-65
2022/02/11 10:25:03;;;;;;;7.63;1.77;;;;;;;-144.43;100.00;64487.81;5032976;28;20025;-65
2022/02/11 10:27:30;;;;;;;3.38;1.63;;;;;;;-144.43;100.00;64487.81;5034334;28;20079;-65
2022/02/11 10:30:06;;;;;;;1.75;1.17;;;;;;;-144.43;100.00;64487.81;5034110;28;20029;-65
2022/02/11 10:32:47;;;;;;;4.28;1.73;;;;;;;-144.43;100.00;64487.81;5034230;28;20033;-65
2022/02/11 10:35:18;;;;;;;2.88;1.40;;;;;;;-144.43;100.00;64487.81;5032783;28;20026;-65
2022/02/11 10:38:03;;;;;;;2.88;1.30;;;;;;;-144.43;100.00;64487.81;5034186;28;20464;-64
2022/02/11 10:40:30;;;;;;;4.25;1.40;;;;;;;-144.43;100.00;64487.81;5024515;28;20095;-65
2022/02/11 10:42:56;;;;;;;2.63;1.40;;;;;;;-144.43;100.00;64487.81;5030571;28;20094;-65
2022/02/11 10:45:28;;;;;;;3.95;1.50;;;;;;;-144.43;100.00;64487.81;5033915;28;20022;-65
2022/02/11 10:48:12;;;;;;;2.38;1.40;;;;;;;-144.43;100.00;64487.81;5026898;28;20028;-65
2022/02/11 10:50:39;;;;;;;3.53;1.38;;;;;;;-144.43;100.00;64487.81;5033788;28;20022;-65
2022/02/11 10:55:21;;;;;;;2.17;1.23;;;;;;;6.52;100.00;95872.25;5015929;27;20971;-66
2022/02/11 10:57:57;;;;;;;3.72;1.40;;;;;;;7.05;100.00;95905.44;5029737;28;20087;-66
2022/02/11 11:00:23;;;;;;;2.42;1.33;;;;;;;7.35;100.00;95951.63;5042936;28;20100;-66
2022/02/11 11:02:48;;;;;;;4.40;1.25;;;;;;;7.53;100.00;95998.78;5044987;28;20029;-66
2022/02/11 11:05:14;;;;;;;2.92;1.35;;;;;;;7.86;100.00;96035.72;5029653;28;20449;-65
2022/02/11 11:07:43;;;;;;;2.80;1.40;;;;;;;8.19;100.00;96075.31;5029484;28;20417;-65
2022/02/11 11:10:11;;;;;;;1.48;1.20;;;;;;;8.05;100.00;96124.56;5029729;28;20030;-65
2022/02/11 11:12:41;;;;;;;3.65;1.40;;;;;;;8.08;100.00;96156.94;5028147;28;20022;-65
2022/02/11 11:15:08;;;;;;;2.20;1.40;;;;;;;8.20;100.00;96156.19;5029410;28;20377;-65
2022/02/11 11:17:37;;;;;;;4.35;1.50;;;;;;;8.47;100.00;96176.25;5029360;28;20026;-66
2022/02/11 11:20:03;;;;;;;3.50;1.10;;;;;;;8.63;100.00;96228.19;5044673;28;20519;-66
2022/02/11 11:22:40;;;;;;;2.47;1.23;;;;;;;8.60;100.00;96285.56;5044677;28;20057;-65
2022/02/11 11:25:08;;;;;;;3.47;1.70;;;;;;;8.57;100.00;96307.34;5026733;28;20029;-65
2022/02/11 11:27:44;;;;;;;2.63;1.10;;;;;;;8.51;100.00;96329.63;5028754;28;20029;-65
2022/02/11 11:30:21;;;;;;;2.65;1.80;;;;;;;8.63;100.00;96335.84;5026718;28;20055;-66
2022/02/11 11:33:05;;;;;;;2.75;1.55;;;;;;;8.89;100.00;96352.63;5027602;28;20025;-66
2022/02/11 11:36:01;;;;;;;2.13;1.30;;;;;;;9.12;100.00;96371.50;5018165;28;20030;-66
2022/02/11 11:38:39;;;;;;;2.42;1.33;;;;;;;9.32;100.00;96389.13;5029222;28;20052;-66
2022/02/11 11:41:37;;;;;;;5.13;1.50;;;;;;;9.54;100.00;96406.31;5027723;28;20029;-66
2022/02/11 11:44:18;;;;;;;6.15;1.45;;;;;;;9.07;100.00;96461.38;5028687;28;20030;-66
2022/02/11 11:46:49;;;;;;;4.55;1.60;;;;;;;8.85;100.00;96485.03;5044285;28;20029;-66
2022/02/11 11:49:15;;;;;;;3.35;1.40;;;;;;;8.47;100.00;96477.16;5038920;28;20048;-66
2022/02/11 11:51:46;;;;;;;3.47;1.63;;;;;;;8.04;100.00;96477.81;5044255;28;20041;-66
2022/02/11 11:54:18;;;;;;;2.50;1.50;;;;;;;7.52;100.00;96463.72;5028586;28;20471;-66
2022/02/11 11:56:49;;;;;;;2.35;1.83;;;;;;;7.39;100.00;96453.94;5028792;28;20029;-66
2022/02/11 11:59:24;;;;;;;2.92;1.40;;;;;;;7.25;100.00;96455.78;5027430;28;20024;-66
2022/02/11 12:01:58;;;;;;;3.20;1.58;;;;;;;7.46;100.00;96452.03;5028786;28;20022;-66
2022/02/11 12:04:25;;;;;;;2.67;1.30;;;;;;;7.63;100.00;96463.03;5027511;28;20424;-66
2022/02/11 12:06:52;;;;;;;1.95;1.30;;;;;;;8.14;100.00;96494.19;5015089;28;20022;-66
2022/02/11 12:09:18;;;;;;;3.75;1.58;;;;;;;8.56;100.00;96486.50;5030574;28;20022;-66
2022/02/11 12:11:43;;;;;;;3.08;1.23;;;;;;;8.76;100.00;96481.00;5015504;28;20029;-66
2022/02/11 12:14:10;;;;;;;3.55;1.55;;;;;;;8.86;100.00;96497.34;5015235;28;20052;-66
2022/02/11 12:16:38;;;;;;;4.85;1.25;;;;;;;9.14;100.00;96465.63;5015381;28;20497;-66
2022/02/11 12:19:04;;;;;;;2.20;1.40;;;;;;;9.37;100.00;96464.16;5030238;28;20030;-66
2022/02/11 12:21:29;;;;;;;1.90;1.35;;;;;;;9.66;100.00;96505.34;5030119;28;20022;-66
2022/02/11 12:29:36;;;;;;;2.53;1.55;;;;;;;10.22;100.00;96574.72;5014974;28;20075;-66
2022/02/11 12:32:06;;;;;;;1.95;1.25;;;;;;;9.99;100.00;96590.63;5013837;28;20026;-66
2022/02/11 12:34:36;;;;;;;2.38;1.60;;;;;;;9.47;100.00;96601.66;5014651;28;20487;-66
2022/02/11 12:37:09;;;;;;;7.45;1.52;;;;;;;9.34;100.00;96593.78;5015035;28;20022;-66
2022/02/11 12:39:34;;;;;;;;;;;;;;;9.67;100.00;96569.38;5030264;28;20017;-66
2022/02/11 12:42:00;;;;;;;2.80;1.50;;;;;;;9.50;100.00;96582.50;5014728;28;19962;-66
2022/02/11 12:44:31;;;;;;;1.63;1.00;;;;;;;9.16;100.00;96583.84;5014710;28;20477;-66
2022/02/11 12:47:01;;;;;;;2.45;1.20;;;;;;;9.16;100.00;96589.19;5014615;28;20038;-66
2022/02/11 12:49:27;;;;;;;1.88;1.20;;;;;;;8.99;100.00;96599.59;5029641;28;20030;-66
2022/02/11 12:51:57;;;;;;;2.17;1.10;;;;;;;9.24;100.00;96596.94;5014553;28;20026;-67
2022/02/11 12:54:24;;;;;;;1.95;1.20;;;;;;;9.38;100.00;96557.53;5012745;28;20049;-66
2022/02/11 12:57:05;;;;;;;2.53;1.55;;;;;;;9.26;100.00;96544.06;5014238;28;20477;-66
2022/02/11 12:59:31;;;;;;;2.08;1.30;;;;;;;9.44;100.00;96561.16;5014287;28;20033;-66
2022/02/11 13:01:57;;;;;;;2.15;1.10;;;;;;;9.68;100.00;96538.06;5029559;28;20072;-66
2022/02/11 13:04:22;;;;;;;1.60;1.30;;;;;;;10.09;100.00;96516.78;5012935;28;20540;-66
2022/02/11 13:06:48;;;;;;;2.20;1.70;;;;;;;9.92;100.00;96531.81;5013094;28;20026;-66
2022/02/11 13:09:16;;;;;;;3.35;1.33;;;;;;;10.04;100.00;96554.09;5013865;28;20029;-66
2022/02/11 13:11:43;;;;;;;1.90;1.10;;;;;;;9.91;100.00;96593.59;5014143;28;20091;-67
2022/02/11 13:14:14;;;;;;;3.03;1.10;;;;;;;10.03;100.00;96583.78;5001036;28;20022;-66
2022/02/11 13:16:40;;;;;;;2.92;1.10;;;;;;;10.34;100.00;96577.44;5012696;28;20052;-66
2022/02/11 13:19:17;;;;;;;1.90;1.27;;;;;;;10.05;100.00;96606.59;5011618;28;20049;-67
2022/02/11 13:21:43;;;;;;;2.45;1.20;;;;;;;9.60;100.00;96606.06;5012196;28;20600;-66
2022/02/11 13:24:11;;;;;;;2.55;1.15;;;;;;;9.05;100.00;96589.91;5012521;28;20025;-66
2022/02/11 13:26:37;;;;;;;1.60;0.95;;;;;;;8.41;100.00;96567.75;5013636;28;20029;-67
2022/02/11 13:29:12;;;;;;;2.97;1.10;;;;;;;7.83;100.00;96549.13;5013750;28;20037;-67
2022/02/11 13:31:50;;;;;;;2.03;1.15;;;;;;;7.64;100.00;96527.88;5013760;28;20080;-66
2022/02/11 13:34:16;;;;;;;2.55;1.30;;;;;;;7.84;100.00;96492.06;5013503;28;20021;-66
2022/02/11 13:36:47;;;;;;;3.00;1.27;;;;;;;7.96;100.00;96484.22;5013671;28;20053;-67
2022/02/11 13:39:31;;;;;;;2.60;1.10;;;;;;;8.14;100.00;96446.94;5013630;28;20080;-67
2022/02/11 13:41:57;;;;;;;2.92;1.05;;;;;;;8.34;100.00;96451.31;4965855;23;20134;-66
2022/02/11 13:44:26;;;;;;;2.85;1.23;;;;;;;8.62;100.00;96451.72;4935132;29;20059;-66
2022/02/11 13:46:53;;;;;;;3.08;1.08;;;;;;;8.58;100.00;96457.75;4936702;29;20386;-66
2022/02/11 13:49:21;;;;;;;2.20;1.20;;;;;;;8.60;100.00;96461.00;4940224;28;20037;-66
2022/02/11 13:53:01;;;;;;;1.67;1.33;;;;;;;8.41;100.00;96471.63;4920030;29;20083;-66
2022/02/11 13:55:03;;;;;;;1.13;0.90;;;;;;;8.20;100.00;96477.28;4915715;29;20123;-66
2022/02/11 13:57:29;;;;;;;3.33;1.20;;;;;;;8.03;100.00;96485.00;4916808;29;20042;-66
2022/02/11 13:59:54;;;;;;;4.30;1.40;;;;;;;8.24;100.00;96477.66;4915395;29;20115;-66
2022/02/11 14:02:23;;;;;;;2.38;1.30;;;;;;;8.38;100.00;96473.91;4916713;29;20383;-66
2022/02/11 14:05:03;;;;;;;2.10;1.20;;;;;;;8.53;100.00;96485.09;4915582;29;20031;-66
2022/02/11 14:07:28;;;;;;;1.27;1.13;;;;;;;8.66;100.00;96494.84;4916719;29;20451;-66
2022/02/11 14:09:54;;;;;;;2.22;1.25;;;;;;;8.78;100.00;96494.94;4916532;29;20028;-66
2022/02/11 14:12:19;;;;;;;1.58;1.30;;;;;;;8.88;100.00;96511.31;4930431;29;20069;-66
2022/02/11 14:14:51;;;;;;;3.10;1.23;;;;;;;8.60;100.00;96544.63;4936427;28;20478;-64
2022/02/11 14:17:19;;;;;;;3.83;1.30;;;;;;;8.55;100.00;96557.78;4927955;29;20438;-67
2022/02/11 14:19:46;;;;;;;2.20;1.50;;;;;;;8.29;100.00;96553.41;4931851;29;20082;-66
2022/02/11 14:22:14;;;;;;;1.80;1.40;;;;;;;8.35;100.00;96539.22;4946091;28;20055;-67
2022/02/11 14:24:40;;;;;;;2.60;1.20;;;;;;;8.48;100.00;96533.00;4934906;29;20471;-66
2022/02/11 14:27:06;;;;;;;1.40;1.30;;;;;;;8.48;100.00;96530.31;4931102;29;20043;-66
2022/02/11 14:29:32;;;;;;;2.17;1.23;;;;;;;8.19;100.00;96537.03;4937100;28;20028;-67
2022/02/11 14:32:01;;;;;;;2.22;1.20;;;;;;;8.14;100.00;96528.88;4931703;29;20032;-67
2022/02/11 14:34:26;;;;;;;1.98;1.20;;;;;;;8.13;100.00;96517.34;4936647;28;20484;-67
2022/02/11 14:36:53;;;;;;;1.52;1.40;;;;;;;8.12;100.00;96521.06;4935937;28;20039;-67
2022/02/11 14:39:19;;;;;;;1.92;1.30;;;;;;;7.96;100.00;96528.75;4940177;28;20028;-67
2022/02/11 14:41:55;;;;;;;3.75;1.40;;;;;;;7.86;100.00;96526.53;4942086;29;20418;-66
2022/02/11 14:44:27;;;;;;;1.90;1.27;;;;;;;7.75;100.00;96533.34;4940790;29;20073;-66
2022/02/11 14:46:55;;;;;;;2.08;1.13;;;;;;;7.71;100.00;96540.16;4939474;29;20486;-66
2022/02/11 14:49:24;;;;;;;1.92;1.13;;;;;;;7.54;100.00;96544.28;4942489;28;20495;-67
2022/02/11 14:52:01;;;;;;;2.25;1.33;;;;;;;7.12;100.00;96537.63;4940006;28;20177;-66
2022/02/11 14:54:26;;;;;;;3.08;1.00;;;;;;;6.94;100.00;96525.75;4933295;29;20032;-66
2022/02/11 14:56:55;;;;;;;2.03;1.20;;;;;;;6.83;100.00;96512.25;4937393;28;20163;-66
2022/02/11 14:59:21;;;;;;;1.70;1.20;;;;;;;6.67;100.00;96518.81;4936543;29;20426;-66
2022/02/11 15:01:50;;;;;;;1.85;1.10;;;;;;;6.55;100.00;96499.16;4936915;28;20039;-66
2022/02/11 15:04:19;;;;;;;1.92;1.27;;;;;;;6.38;100.00;96499.53;4939893;29;20024;-66
2022/02/11 15:06:50;;;;;;;1.58;1.33;;;;;;;6.33;100.00;96485.22;4952921;28;20027;-66
2022/02/11 15:09:18;;;;;;;2.67;1.13;;;;;;;6.20;100.00;96479.91;4930268;29;20047;-66
2022/02/11 15:11:44;;;;;;;3.45;1.27;;;;;;;6.13;100.00;96468.41;4940462;29;20038;-66
2022/02/11 15:14:13;;;;;;;3.15;1.33;;;;;;;6.09;100.00;96465.34;4925287;28;20043;-66
2022/02/11 15:16:38;;;;;;;1.45;0.95;;;;;;;6.08;100.00;96461.06;4954533;28;20075;-67
2022/02/11 15:19:06;;;;;;;4.22;1.23;;;;;;;6.01;100.00;96446.94;4936320;28;20027;-66
2022/02/11 15:21:35;;;;;;;1.10;1.00;;;;;;;6.00;100.00;96447.94;4952073;28;20067;-66
2022/02/11 15:24:00;;;;;;;4.00;1.13;;;;;;;5.96;100.00;96441.38;4939888;28;20032;-66
2022/02/11 15:26:28;;;;;;;1.83;1.20;;;;;;;5.88;100.00;96439.72;4928708;29;20075;-67